createdAt,value
2022-11-30T00:01:40.921Z,13.10
2022-11-30T00:04:13.714Z,9.90
2022-11-30T00:06:46.224Z,14.30
2022-11-30T00:09:18.767Z,12.00
2022-11-30T00:11:51.361Z,11.70
2022-11-30T00:14:23.869Z,14.70
2022-11-30T00:16:56.432Z,11.80
2022-11-30T00:22:00.090Z,12.40
2022-11-30T00:24:32.678Z,11.50
2022-11-30T00:27:05.137Z,13.90
2022-11-30T00:29:37.638Z,12.70
2022-11-30T00:32:10.302Z,12.40
2022-11-30T00:34:42.894Z,12.60
2022-11-30T00:37:15.450Z,13.10
2022-11-30T00:39:47.942Z,11.50
2022-11-30T00:42:20.517Z,10.60
2022-11-30T00:44:53.093Z,12.20
2022-11-30T00:47:25.657Z,11.10
2022-11-30T00:49:58.145Z,12.00
2022-11-30T00:52:31.436Z,10.60
2022-11-30T00:55:04.511Z,10.40
2022-11-30T00:57:37.092Z,11.00
2022-11-30T01:00:12.075Z,10.40
2022-11-30T01:02:45.211Z,11.30
2022-11-30T01:05:18.001Z,12.00
2022-11-30T01:07:50.995Z,11.10
2022-11-30T01:12:56.482Z,12.40
2022-11-30T01:15:29.183Z,11.50
2022-11-30T01:18:03.206Z,11.30
2022-11-30T01:20:35.841Z,12.70
2022-11-30T01:23:08.552Z,12.80
2022-11-30T01:25:42.791Z,12.10
2022-11-30T01:28:15.399Z,12.40
2022-11-30T01:30:47.966Z,12.50
2022-11-30T01:35:51.595Z,11.00
2022-11-30T01:38:24.179Z,12.50
2022-11-30T01:40:56.870Z,13.60
2022-11-30T01:43:42.177Z,14.00
2022-11-30T01:46:27.972Z,15.30
2022-11-30T01:49:06.835Z,14.80
2022-11-30T01:51:42.344Z,13.90
2022-11-30T01:54:18.991Z,13.00
2022-11-30T01:56:54.438Z,12.60
2022-11-30T01:59:28.134Z,12.30
2022-11-30T02:02:00.826Z,11.60
2022-11-30T02:04:36.219Z,10.60
2022-11-30T02:07:10.469Z,10.20
2022-11-30T02:09:45.905Z,9.30
2022-11-30T02:12:24.757Z,11.60
2022-11-30T02:14:59.874Z,11.00
2022-11-30T02:17:41.115Z,10.70
2022-11-30T02:20:36.492Z,8.00
2022-11-30T02:23:28.284Z,10.00
2022-11-30T02:26:08.421Z,11.70
2022-11-30T02:29:04.469Z,7.80
2022-11-30T02:31:41.951Z,9.40
2022-11-30T02:34:17.267Z,6.50
2022-11-30T02:36:51.207Z,7.50
2022-11-30T02:39:24.691Z,8.90
2022-11-30T02:41:57.287Z,9.20
2022-11-30T02:44:31.546Z,6.60
2022-11-30T02:47:16.028Z,6.90
2022-11-30T02:49:53.234Z,6.90
2022-11-30T02:52:28.661Z,6.80
2022-11-30T02:55:06.373Z,6.20
2022-11-30T02:57:39.602Z,7.40
2022-11-30T03:00:14.583Z,5.90
2022-11-30T03:02:47.261Z,6.50
2022-11-30T03:05:20.191Z,5.50
2022-11-30T03:10:23.981Z,6.40
2022-11-30T03:13:00.413Z,4.90
2022-11-30T03:15:33.115Z,7.00
2022-11-30T03:18:06.778Z,5.60
2022-11-30T03:20:43.354Z,6.80
2022-11-30T03:23:16.023Z,7.90
2022-11-30T03:25:48.869Z,7.60
2022-11-30T03:30:53.156Z,8.30
2022-11-30T03:33:25.830Z,7.50
2022-11-30T03:36:04.113Z,7.70
2022-11-30T03:38:36.783Z,8.30
2022-11-30T03:41:12.102Z,8.80
2022-11-30T03:43:45.048Z,7.70
2022-11-30T03:46:17.936Z,7.90
2022-11-30T03:51:21.570Z,7.20
2022-11-30T03:53:54.228Z,8.10
2022-11-30T03:56:26.875Z,8.90
2022-11-30T03:58:59.454Z,8.60
2022-11-30T04:01:32.058Z,8.00
2022-11-30T04:04:04.735Z,7.90
2022-11-30T04:06:37.391Z,6.50
2022-11-30T04:09:10.120Z,8.60
2022-11-30T04:11:42.766Z,7.30
2022-11-30T04:14:15.421Z,8.30
2022-11-30T04:16:47.953Z,8.10
2022-11-30T04:19:20.667Z,8.90
2022-11-30T04:21:53.316Z,7.10
2022-11-30T04:24:25.971Z,8.80
2022-11-30T04:26:58.624Z,8.60
2022-11-30T04:29:31.592Z,7.20
2022-11-30T04:32:04.215Z,8.10
2022-11-30T04:34:37.036Z,15.70
2022-11-30T04:37:09.561Z,9.50
2022-11-30T04:39:42.116Z,7.80
2022-11-30T04:42:14.660Z,7.60
2022-11-30T04:44:47.427Z,8.40
2022-11-30T04:47:20.402Z,7.90
2022-11-30T04:49:53.053Z,8.40
2022-11-30T04:52:25.636Z,6.70
2022-11-30T04:54:58.089Z,6.30
2022-11-30T04:57:30.543Z,6.90
2022-11-30T05:00:03.178Z,7.40
2022-11-30T05:02:35.627Z,7.10
2022-11-30T05:05:09.573Z,7.50
2022-11-30T05:07:42.323Z,7.40
2022-11-30T05:10:15.377Z,5.80
2022-11-30T05:12:47.964Z,7.40
2022-11-30T05:15:20.670Z,6.70
2022-11-30T05:17:53.969Z,5.50
2022-11-30T05:20:28.207Z,5.80
2022-11-30T05:23:05.124Z,5.30
2022-11-30T05:25:38.013Z,5.50
2022-11-30T05:30:42.636Z,5.90
2022-11-30T05:33:15.347Z,5.00
2022-11-30T05:35:47.981Z,4.90
2022-11-30T05:40:51.705Z,5.20
2022-11-30T05:43:24.387Z,7.00
2022-11-30T05:46:02.438Z,4.40
2022-11-30T05:48:35.125Z,3.70
2022-11-30T05:51:12.792Z,4.80
2022-11-30T05:53:45.370Z,6.50
2022-11-30T05:56:19.964Z,4.60
2022-11-30T05:58:52.528Z,5.00
2022-11-30T06:01:27.619Z,4.20
2022-11-30T06:04:02.531Z,4.40
2022-11-30T06:06:37.221Z,4.90
2022-11-30T06:09:09.777Z,5.40
2022-11-30T06:11:42.221Z,7.30
2022-11-30T06:14:14.697Z,4.50
2022-11-30T06:16:47.521Z,4.70
2022-11-30T06:21:50.872Z,5.00
2022-11-30T06:24:23.297Z,5.30
2022-11-30T06:26:55.774Z,7.90
2022-11-30T06:29:28.416Z,5.90
2022-11-30T06:32:01.387Z,6.10
2022-11-30T06:34:34.800Z,8.00
2022-11-30T06:37:07.512Z,8.90
2022-11-30T06:40:06.044Z,8.40
2022-11-30T06:42:59.280Z,5.50
2022-11-30T06:48:04.782Z,7.20
2022-11-30T06:50:37.360Z,9.10
2022-11-30T06:53:10.191Z,5.50
2022-11-30T06:55:43.074Z,5.10
2022-11-30T07:00:46.762Z,5.90
2022-11-30T07:03:19.780Z,7.10
2022-11-30T07:08:23.468Z,6.00
2022-11-30T07:10:56.252Z,6.60
2022-11-30T07:13:28.877Z,5.40
2022-11-30T07:16:01.899Z,8.10
2022-11-30T07:18:35.002Z,6.30
2022-11-30T07:21:09.039Z,7.40
2022-11-30T07:23:59.530Z,5.40
2022-11-30T07:26:32.150Z,7.10
2022-11-30T07:29:05.491Z,6.60
2022-11-30T07:31:39.250Z,5.00
2022-11-30T07:34:13.528Z,6.40
2022-11-30T07:36:46.630Z,6.60
2022-11-30T07:39:19.266Z,8.50
2022-11-30T07:41:51.898Z,6.50
2022-11-30T07:44:24.477Z,6.40
2022-11-30T07:46:56.921Z,8.60
2022-11-30T07:49:29.554Z,8.40
2022-11-30T07:52:04.291Z,8.00
2022-11-30T07:54:36.973Z,6.80
2022-11-30T07:57:09.585Z,9.20
2022-11-30T07:59:42.146Z,8.50
2022-11-30T08:02:14.829Z,6.30
2022-11-30T08:04:47.976Z,6.70
2022-11-30T08:07:22.485Z,6.80
2022-11-30T08:09:55.110Z,8.70
2022-11-30T08:12:27.543Z,8.30
2022-11-30T08:15:24.942Z,7.70
2022-11-30T08:17:55.329Z,8.80
2022-11-30T08:20:27.897Z,7.90
2022-11-30T08:25:32.153Z,7.60
2022-11-30T08:28:04.931Z,9.10
2022-11-30T08:30:37.688Z,7.20
2022-11-30T08:35:41.979Z,7.30
2022-11-30T08:38:14.620Z,6.70
2022-11-30T08:40:47.165Z,6.70
2022-11-30T08:43:19.751Z,6.70
2022-11-30T08:45:54.470Z,5.70
2022-11-30T08:48:29.929Z,6.80
2022-11-30T08:51:04.758Z,4.50
2022-11-30T08:53:37.537Z,7.50
2022-11-30T08:58:42.735Z,5.00
2022-11-30T09:03:49.131Z,4.60
2022-11-30T09:06:23.471Z,3.70
2022-11-30T09:08:58.151Z,5.40
2022-11-30T09:11:33.077Z,3.90
2022-11-30T09:14:07.106Z,4.20
2022-11-30T09:16:40.253Z,3.90
2022-11-30T09:19:13.134Z,3.50
2022-11-30T09:21:51.539Z,4.40
2022-11-30T09:24:26.524Z,4.30
2022-11-30T09:27:00.368Z,6.00
2022-11-30T09:29:33.040Z,5.90
2022-11-30T09:32:05.870Z,4.60
2022-11-30T09:37:10.860Z,7.00
2022-11-30T09:39:43.425Z,4.70
2022-11-30T09:42:33.455Z,6.00
2022-11-30T09:45:12.306Z,3.80
2022-11-30T09:48:06.995Z,4.90
2022-11-30T09:50:42.867Z,4.60
2022-11-30T09:53:29.653Z,5.50
2022-11-30T09:56:03.425Z,4.60
2022-11-30T09:58:45.333Z,8.80
2022-11-30T10:01:20.257Z,4.60
2022-11-30T10:03:53.888Z,5.40
2022-11-30T10:06:32.746Z,4.40
2022-11-30T10:09:15.725Z,5.20
2022-11-30T10:11:55.149Z,3.10
2022-11-30T10:14:41.740Z,6.30
2022-11-30T10:17:23.100Z,4.30
2022-11-30T10:20:09.970Z,4.10
2022-11-30T10:22:57.218Z,3.60
2022-11-30T10:25:34.734Z,4.00
2022-11-30T10:28:45.598Z,3.20
2022-11-30T10:33:52.021Z,2.90
2022-11-30T10:36:29.359Z,4.00
2022-11-30T10:39:04.977Z,2.50
2022-11-30T10:41:41.429Z,3.70
2022-11-30T10:44:18.249Z,5.80
2022-11-30T10:46:57.090Z,5.10
2022-11-30T10:49:36.082Z,3.80
2022-11-30T10:52:14.706Z,4.10
2022-11-30T10:54:48.032Z,3.30
2022-11-30T10:57:26.341Z,5.50
2022-11-30T11:00:12.504Z,3.00
2022-11-30T11:02:50.953Z,4.60
2022-11-30T11:05:26.406Z,4.20
2022-11-30T11:08:07.101Z,3.20
2022-11-30T11:10:46.663Z,5.20
2022-11-30T11:13:22.034Z,5.10
2022-11-30T11:16:02.108Z,5.50
2022-11-30T11:18:39.975Z,5.10
2022-11-30T11:21:21.788Z,4.20
2022-11-30T11:23:58.478Z,3.50
2022-11-30T11:26:32.119Z,3.50
2022-11-30T11:29:05.759Z,4.90
2022-11-30T11:31:44.280Z,5.80
2022-11-30T11:34:27.037Z,4.60
2022-11-30T11:37:13.107Z,5.90
2022-11-30T11:39:47.057Z,4.70
2022-11-30T11:42:22.605Z,4.70
2022-11-30T11:44:56.971Z,5.40
2022-11-30T11:47:30.973Z,5.60
2022-11-30T11:53:41.366Z,7.90
2022-11-30T11:56:25.587Z,4.20
2022-11-30T11:59:02.419Z,5.80
2022-11-30T12:01:46.451Z,6.30
2022-11-30T12:04:34.569Z,4.40
2022-11-30T12:07:19.189Z,5.50
2022-11-30T12:10:49.453Z,4.90
2022-11-30T12:13:13.381Z,3.70
2022-11-30T12:15:53.673Z,4.40
2022-11-30T12:18:28.980Z,4.40
2022-11-30T12:21:04.218Z,4.30
2022-11-30T12:24:15.888Z,3.20
2022-11-30T12:26:50.744Z,4.70
2022-11-30T12:29:29.973Z,4.50
2022-11-30T12:32:21.745Z,4.70
2022-11-30T12:35:04.874Z,5.70
2022-11-30T12:37:47.493Z,4.40
2022-11-30T12:43:01.358Z,4.00
2022-11-30T12:45:36.936Z,5.40
2022-11-30T12:48:19.504Z,4.20
2022-11-30T12:51:02.212Z,4.00
2022-11-30T12:53:47.282Z,3.90
2022-11-30T12:56:33.738Z,4.10
2022-11-30T12:59:20.015Z,4.20
2022-11-30T13:02:04.466Z,4.20
2022-11-30T13:04:41.188Z,3.60
2022-11-30T13:07:21.353Z,5.00
2022-11-30T13:09:57.350Z,4.60
2022-11-30T13:12:36.466Z,3.40
2022-11-30T13:15:15.925Z,5.10
2022-11-30T13:17:49.822Z,5.40
2022-11-30T13:20:27.259Z,4.20
2022-11-30T13:23:03.738Z,7.70
2022-11-30T13:28:46.379Z,4.60
2022-11-30T13:31:23.184Z,4.80
2022-11-30T13:34:02.284Z,7.70
2022-11-30T13:36:38.351Z,4.30
2022-11-30T13:39:26.239Z,3.10
2022-11-30T13:42:25.863Z,4.60
2022-11-30T13:44:58.552Z,4.40
2022-11-30T13:47:34.541Z,5.00
2022-11-30T13:50:10.622Z,4.30
2022-11-30T13:53:35.231Z,6.60
2022-11-30T13:56:10.436Z,4.40
2022-11-30T13:59:22.784Z,7.60
2022-11-30T14:05:25.798Z,4.10
2022-11-30T14:08:30.787Z,4.60
2022-11-30T14:11:44.183Z,5.70
2022-11-30T14:14:47.099Z,5.30
2022-11-30T14:17:24.629Z,9.30
2022-11-30T14:20:01.540Z,6.40
2022-11-30T14:22:34.204Z,4.60
2022-11-30T14:25:15.406Z,4.60
2022-11-30T14:27:48.624Z,4.40
2022-11-30T14:30:22.963Z,5.70
2022-11-30T14:33:01.290Z,6.10
2022-11-30T14:35:34.190Z,4.30
2022-11-30T14:40:38.008Z,5.60
2022-11-30T14:43:19.195Z,4.40
2022-11-30T14:46:05.677Z,4.80
2022-11-30T14:48:40.733Z,4.20
2022-11-30T14:51:14.424Z,5.80
2022-11-30T14:53:53.382Z,4.30
2022-11-30T14:56:30.993Z,6.70
2022-11-30T14:59:11.377Z,4.20
2022-11-30T15:01:44.024Z,4.20
2022-11-30T15:04:18.796Z,5.60
2022-11-30T15:06:51.314Z,5.60
2022-11-30T15:09:26.099Z,4.70
2022-11-30T15:12:00.283Z,4.60
2022-11-30T15:14:32.912Z,4.70
2022-11-30T15:17:14.239Z,5.70
2022-11-30T15:19:50.251Z,5.20
2022-11-30T15:22:25.389Z,5.10
2022-11-30T15:24:58.113Z,5.20
2022-11-30T15:27:30.714Z,6.40
2022-11-30T15:30:03.600Z,6.60
2022-11-30T15:35:17.988Z,6.10
2022-11-30T15:37:50.862Z,8.00
2022-11-30T15:43:00.373Z,5.80
2022-11-30T15:45:35.417Z,6.80
2022-11-30T15:48:29.849Z,7.40
2022-11-30T15:51:02.732Z,5.60
2022-11-30T15:53:49.990Z,6.60
2022-11-30T15:56:30.287Z,4.90
2022-11-30T15:59:08.208Z,5.60
2022-11-30T16:02:06.287Z,6.10
2022-11-30T16:05:20.989Z,5.00
2022-11-30T16:07:57.419Z,5.50
2022-11-30T16:10:34.291Z,5.10
2022-11-30T16:13:08.305Z,7.60
2022-11-30T16:15:42.911Z,4.80
2022-11-30T16:18:17.860Z,7.10
2022-11-30T16:20:55.014Z,6.20
2022-11-30T16:23:28.457Z,6.30
2022-11-30T16:26:01.048Z,5.10
2022-11-30T16:28:33.821Z,6.60
2022-11-30T16:31:06.990Z,5.70
2022-11-30T16:33:39.578Z,7.00
2022-11-30T16:36:17.920Z,6.90
2022-11-30T16:38:53.835Z,6.00
2022-11-30T16:41:27.519Z,6.50
2022-11-30T16:44:01.344Z,7.40
2022-11-30T16:46:34.017Z,5.80
2022-11-30T16:49:06.663Z,6.30
2022-11-30T16:51:41.996Z,6.20
2022-11-30T16:54:16.433Z,7.20
2022-11-30T16:56:48.940Z,6.00
2022-11-30T16:59:21.475Z,6.60
2022-11-30T17:01:55.193Z,6.00
2022-11-30T17:04:29.761Z,5.40
2022-11-30T17:07:03.148Z,6.90
2022-11-30T17:09:36.481Z,6.00
2022-11-30T17:12:10.539Z,6.80
2022-11-30T17:14:44.537Z,7.50
2022-11-30T17:17:17.483Z,7.50
2022-11-30T17:19:50.365Z,8.50
2022-11-30T17:22:23.129Z,7.30
2022-11-30T17:27:26.443Z,7.60
2022-11-30T17:29:58.918Z,8.20
2022-11-30T17:32:32.012Z,6.70
2022-11-30T17:35:04.598Z,11.60
2022-11-30T17:37:37.237Z,8.50
2022-11-30T17:40:16.315Z,7.70
2022-11-30T17:42:48.844Z,8.00
2022-11-30T17:45:23.348Z,9.90
2022-11-30T17:47:56.045Z,9.00
2022-11-30T17:50:28.525Z,9.50
2022-11-30T17:53:01.120Z,8.50
2022-11-30T17:55:34.405Z,9.60
2022-11-30T17:58:06.946Z,8.60
2022-11-30T18:00:40.445Z,8.60
2022-11-30T18:03:13.028Z,7.90
2022-11-30T18:05:45.645Z,13.40
2022-11-30T18:08:20.082Z,9.90
2022-11-30T18:10:53.225Z,7.70
2022-11-30T18:13:26.252Z,8.40
2022-11-30T18:16:09.594Z,8.70
2022-11-30T18:18:48.086Z,10.70
2022-11-30T18:21:24.499Z,7.00
2022-11-30T18:23:58.473Z,9.60
2022-11-30T18:26:31.121Z,10.80
2022-11-30T18:29:04.265Z,9.60
2022-11-30T18:31:38.088Z,9.90
2022-11-30T18:34:11.732Z,10.20
2022-11-30T18:36:44.321Z,8.70
2022-11-30T18:39:17.056Z,10.30
2022-11-30T18:44:20.820Z,12.90
2022-11-30T18:46:53.552Z,13.00
2022-11-30T18:49:26.574Z,10.70
2022-11-30T18:54:31.753Z,14.10
2022-11-30T18:57:04.446Z,14.30
2022-11-30T18:59:37.195Z,12.10
2022-11-30T19:02:12.058Z,16.10
2022-11-30T19:04:45.664Z,15.90
2022-11-30T19:07:18.685Z,12.30
2022-11-30T19:09:51.631Z,12.70
2022-11-30T19:14:56.119Z,12.90
2022-11-30T19:17:33.627Z,16.00
2022-11-30T19:20:07.509Z,13.50
2022-11-30T19:22:44.403Z,14.00
2022-11-30T19:25:19.159Z,12.70
2022-11-30T19:27:52.321Z,14.40
2022-11-30T19:30:27.149Z,12.50
2022-11-30T19:32:59.890Z,14.40
2022-11-30T19:35:32.794Z,10.70
2022-11-30T19:38:06.013Z,13.60
2022-11-30T19:40:42.613Z,12.80
2022-11-30T19:43:18.323Z,13.10
2022-11-30T19:45:54.122Z,14.20
2022-11-30T19:48:31.597Z,13.40
2022-11-30T19:51:13.503Z,15.30
2022-11-30T19:54:01.039Z,11.80
2022-11-30T19:56:36.660Z,13.60
2022-11-30T19:59:10.635Z,12.30
2022-11-30T20:01:43.673Z,13.00
2022-11-30T20:04:16.327Z,14.60
2022-11-30T20:06:49.092Z,11.20
2022-11-30T20:11:52.875Z,13.40
2022-11-30T20:16:56.476Z,15.90
2022-11-30T20:19:29.105Z,17.10
2022-11-30T20:22:04.939Z,12.20
2022-11-30T20:24:38.129Z,16.50
2022-11-30T20:27:13.524Z,15.50
2022-11-30T20:29:46.249Z,11.80
2022-11-30T20:32:19.460Z,12.70
2022-11-30T20:34:52.227Z,12.60
2022-11-30T20:37:25.859Z,13.20
2022-11-30T20:39:58.405Z,13.30
2022-11-30T20:42:31.877Z,15.90
2022-11-30T20:45:05.822Z,14.60
2022-11-30T20:47:38.510Z,14.20
2022-11-30T20:50:12.670Z,14.60
2022-11-30T20:52:45.304Z,14.70
2022-11-30T20:55:18.018Z,15.40
2022-11-30T20:57:51.583Z,15.80
2022-11-30T21:00:24.745Z,15.20
2022-11-30T21:02:57.751Z,13.20
2022-11-30T21:05:31.800Z,15.70
2022-11-30T21:08:06.320Z,13.50
2022-11-30T21:10:42.299Z,14.70
2022-11-30T21:13:15.393Z,14.40
2022-11-30T21:15:48.248Z,15.70
2022-11-30T21:18:21.171Z,16.20
2022-11-30T21:23:27.993Z,15.40
2022-11-30T21:26:06.053Z,16.20
2022-11-30T21:28:39.259Z,15.00
2022-11-30T21:31:12.561Z,15.80
2022-11-30T21:33:52.408Z,16.80
2022-11-30T21:36:26.574Z,18.50
2022-11-30T21:39:05.696Z,18.00
2022-11-30T21:41:41.479Z,16.80
2022-11-30T21:44:16.192Z,18.40
2022-11-30T21:46:49.487Z,16.80
2022-11-30T21:49:25.026Z,16.50
2022-11-30T21:54:28.497Z,18.70
2022-11-30T21:57:00.936Z,17.70
2022-11-30T21:59:34.076Z,16.90
2022-11-30T22:02:06.901Z,16.00
2022-11-30T22:04:41.590Z,17.30
2022-11-30T22:07:15.653Z,14.40
2022-11-30T22:09:48.522Z,18.10
2022-11-30T22:12:21.849Z,16.50
2022-11-30T22:17:25.299Z,17.20
2022-11-30T22:19:57.739Z,16.20
2022-11-30T22:22:32.601Z,16.10
2022-11-30T22:25:05.301Z,16.00
2022-11-30T22:27:40.507Z,16.80
2022-11-30T22:30:14.902Z,17.60
2022-11-30T22:32:50.726Z,16.20
2022-11-30T22:35:23.223Z,15.00
2022-11-30T22:37:58.557Z,16.20
2022-11-30T22:40:31.076Z,14.20
2022-11-30T22:43:03.574Z,18.10
2022-11-30T22:45:37.539Z,16.40
2022-11-30T22:48:12.448Z,16.00
2022-11-30T22:50:46.261Z,13.40
2022-11-30T22:53:18.690Z,14.60
2022-11-30T22:55:54.808Z,19.40
2022-11-30T22:58:27.969Z,15.20
2022-11-30T23:01:10.826Z,16.70
2022-11-30T23:03:44.422Z,13.60
2022-11-30T23:06:21.102Z,16.70
2022-11-30T23:08:54.590Z,13.60
2022-11-30T23:11:31.012Z,18.10
2022-11-30T23:14:08.424Z,14.80
2022-11-30T23:16:48.263Z,16.50
2022-11-30T23:19:26.990Z,15.10
2022-11-30T23:21:59.642Z,15.40
2022-11-30T23:24:36.823Z,17.60
2022-11-30T23:27:09.454Z,14.60
2022-11-30T23:29:41.985Z,18.40
2022-11-30T23:32:15.712Z,16.30
2022-11-30T23:34:50.808Z,14.80
2022-11-30T23:37:23.612Z,15.80
2022-11-30T23:39:55.985Z,17.10
2022-11-30T23:42:28.508Z,16.60
2022-11-30T23:45:01.171Z,16.50
2022-11-30T23:47:33.772Z,17.60
2022-11-30T23:50:07.822Z,15.80
2022-11-30T23:52:40.291Z,17.90
2022-11-30T23:57:44.737Z,20.40
